Time;durP1;ratioP1;P1;durP2;ratioP2;P2;SDS_P1;SDS_P2;PMS_P1;PMS_P2;Temp;Humidity;BMP_temperature;BMP_pressure;BME280_temperature;BME280_humidity;BME280_pressure;Samples;Min_cycle;Max_cycle;Signal;HPM_P1;HPM_P2
2022/10/29 00:00:59;;;;;;;17.15;14.95;;;;;;;21.73;62.48;102205.03;5056499;28;20504;-81
2022/10/29 00:03:26;;;;;;;18.65;15.73;;;;;;;21.75;62.25;102202.19;5056014;28;20045;-81
2022/10/29 00:06:00;;;;;;;18.15;15.35;;;;;;;21.74;62.33;102203.19;5056033;28;20056;-81
2022/10/29 00:08:29;;;;;;;19.85;15.70;;;;;;;21.75;62.35;102204.88;5056188;28;20052;-81
2022/10/29 00:11:27;;;;;;;18.90;15.40;;;;;;;21.75;62.24;102204.88;5056277;28;20041;-81
2022/10/29 00:13:59;;;;;;;21.25;15.23;;;;;;;21.75;62.26;102204.03;5043214;28;20060;-80
2022/10/29 00:16:33;;;;;;;19.60;15.70;;;;;;;21.75;62.30;102198.66;5056108;28;20048;-81
2022/10/29 00:19:00;;;;;;;17.17;14.63;;;;;;;21.73;62.34;102202.31;5055982;28;20045;-81
2022/10/29 00:21:27;;;;;;;20.60;15.40;;;;;;;21.75;62.24;102198.66;5056128;28;20063;-81
2022/10/29 00:23:56;;;;;;;17.50;15.32;;;;;;;21.73;62.24;102202.31;5055667;28;20045;-81
2022/10/29 00:26:24;;;;;;;18.38;15.45;;;;;;;21.73;62.08;102196.94;5055730;28;20059;-81
2022/10/29 00:28:53;;;;;;;19.50;15.60;;;;;;;21.73;62.20;102196.06;5055670;28;20045;-81
2022/10/29 00:31:24;;;;;;;18.80;14.43;;;;;;;21.73;62.25;102204.16;5070558;28;20511;-81
2022/10/29 00:33:53;;;;;;;18.98;14.52;;;;;;;21.72;62.13;102200.59;5056287;28;20049;-82
2022/10/29 00:36:25;;;;;;;18.48;15.18;;;;;;;21.72;62.11;102197.91;5055573;28;20052;-81
2022/10/29 00:38:53;;;;;;;17.95;15.02;;;;;;;21.71;62.09;102198.91;5055685;28;20370;-81
2022/10/29 00:41:25;;;;;;;15.82;13.02;;;;;;;21.72;62.14;102200.59;5055703;28;20045;-81
2022/10/29 00:44:32;;;;;;;17.17;13.45;;;;;;;21.71;61.99;102198.91;5055679;28;20045;-81
2022/10/29 00:47:16;;;;;;;17.50;14.70;;;;;;;21.71;62.04;102198.00;5055548;28;20040;-81
2022/10/29 00:49:46;;;;;;;18.15;13.90;;;;;;;21.70;62.19;102197.16;5055682;28;20048;-82
2022/10/29 00:52:15;;;;;;;18.23;14.35;;;;;;;21.72;62.00;102205.16;5054839;28;20053;-81
2022/10/29 00:54:45;;;;;;;19.40;14.10;;;;;;;21.71;61.98;102198.91;5054478;28;20040;-82
2022/10/29 00:57:20;;;;;;;17.05;13.90;;;;;;;21.70;61.98;102190.91;5070788;28;20048;-82
2022/10/29 00:59:49;;;;;;;15.27;13.68;;;;;;;21.71;62.13;102184.53;5054934;28;20072;-83
2022/10/29 01:02:17;;;;;;;15.93;13.93;;;;;;;21.70;61.99;102186.38;5055583;28;20044;-83
2022/10/29 01:04:45;;;;;;;16.35;14.05;;;;;;;21.71;62.07;102181.84;5070838;28;20056;-83
2022/10/29 01:07:12;;;;;;;15.48;13.85;;;;;;;21.69;61.98;102168.50;5055113;28;20049;-82
2022/10/29 01:09:40;;;;;;;16.85;13.82;;;;;;;21.67;61.96;102175.84;5054780;28;20497;-81
2022/10/29 01:12:13;;;;;;;15.68;13.73;;;;;;;21.69;61.87;102171.19;5055162;28;20045;-82
2022/10/29 01:15:01;;;;;;;15.90;13.68;;;;;;;21.71;61.97;102168.34;5055130;28;20045;-81
2022/10/29 01:17:34;;;;;;;14.13;12.57;;;;;;;21.70;61.83;102172.03;5070572;28;20052;-80
2022/10/29 01:20:20;;;;;;;17.15;13.52;;;;;;;21.69;61.92;102176.56;5055063;28;20056;-80
2022/10/29 01:22:53;;;;;;;15.00;12.45;;;;;;;21.70;61.90;102170.19;5054560;28;20048;-81
2022/10/29 01:25:29;;;;;;;15.60;14.00;;;;;;;21.69;61.78;102167.63;5055068;28;20067;-80
2022/10/29 01:28:24;;;;;;;15.10;12.77;;;;;;;21.69;61.89;102164.94;5054571;28;20397;-81
2022/10/29 01:31:09;;;;;;;17.58;13.95;;;;;;;21.69;61.82;102163.09;5009204;28;20061;-80
2022/10/29 01:33:44;;;;;;;15.10;13.50;;;;;;;21.69;61.70;102162.25;5054936;28;20477;-82
2022/10/29 01:36:24;;;;;;;14.55;12.73;;;;;;;21.68;61.84;102156.00;5055396;28;20049;-82
2022/10/29 01:39:10;;;;;;;15.98;12.95;;;;;;;21.68;61.79;102152.44;5055393;28;20550;-82
2022/10/29 01:42:01;;;;;;;15.93;12.82;;;;;;;21.69;61.61;102151.47;5054958;28;20405;-82
2022/10/29 01:44:36;;;;;;;15.55;12.90;;;;;;;21.68;61.50;102147.91;5055241;28;20053;-83
2022/10/29 01:47:10;;;;;;;18.38;13.45;;;;;;;21.67;61.61;102142.63;5053719;28;20444;-83
2022/10/29 01:49:41;;;;;;;16.08;13.65;;;;;;;21.68;61.61;102152.44;5055566;28;20049;-82
2022/10/29 01:52:12;;;;;;;14.75;12.60;;;;;;;21.68;61.57;102144.34;5054987;28;20045;-82
2022/10/29 01:54:45;;;;;;;15.70;12.73;;;;;;;21.69;61.63;102148.75;5055049;28;20544;-82
2022/10/29 01:57:42;;;;;;;13.65;12.30;;;;;;;21.65;61.63;102142.75;5054851;28;20045;-81
2022/10/29 02:00:13;;;;;;;14.55;12.52;;;;;;;21.66;61.87;102141.75;5037557;28;20056;-81
2022/10/29 02:03:00;;;;;;;14.75;12.63;;;;;;;21.66;61.63;102140.91;5054730;28;20041;-81
2022/10/29 02:05:56;;;;;;;14.60;12.60;;;;;;;21.66;61.54;102139.06;5054527;28;20400;-80
2022/10/29 02:08:41;;;;;;;14.98;11.38;;;;;;;21.65;61.48;102140.03;5053903;28;20499;-81
2022/10/29 02:11:24;;;;;;;14.73;12.30;;;;;;;21.66;61.58;102132.81;5055540;28;20059;-80
2022/10/29 02:14:19;;;;;;;15.80;11.87;;;;;;;21.65;61.59;102133.78;5058459;28;20052;-79
2022/10/29 02:16:47;;;;;;;16.27;12.52;;;;;;;21.66;61.56;102138.22;5073101;28;20412;-79
2022/10/29 02:19:14;;;;;;;17.50;12.15;;;;;;;21.63;61.67;102133.94;5058133;28;20052;-79
2022/10/29 02:21:43;;;;;;;16.17;12.65;;;;;;;21.66;61.84;102140.91;5058312;28;20044;-80
2022/10/29 02:24:11;;;;;;;15.05;12.88;;;;;;;21.65;61.61;102147.28;5058343;28;20057;-79
2022/10/29 02:26:38;;;;;;;13.98;11.82;;;;;;;21.65;61.71;102147.28;5058276;28;20045;-79
2022/10/29 02:29:05;;;;;;;16.55;12.68;;;;;;;21.64;61.63;102153.66;5058018;28;20457;-80
2022/10/29 02:31:35;;;;;;;13.77;12.05;;;;;;;21.63;61.63;102150.09;5058060;28;20048;-80
2022/10/29 02:34:02;;;;;;;15.10;12.43;;;;;;;21.64;61.45;102149.13;5057521;28;20045;-79
2022/10/29 02:36:29;;;;;;;14.93;12.20;;;;;;;21.64;61.47;102146.41;5057903;28;20106;-80
2022/10/29 02:38:56;;;;;;;15.45;13.18;;;;;;;21.62;61.65;102148.34;5056854;28;20049;-80
2022/10/29 02:41:24;;;;;;;16.27;12.73;;;;;;;21.63;61.53;102136.63;5057667;28;20056;-80
2022/10/29 02:43:51;;;;;;;13.15;11.75;;;;;;;21.64;61.60;102138.34;5057802;28;20049;-80
2022/10/29 02:46:20;;;;;;;15.00;12.35;;;;;;;21.64;61.60;102130.25;5057613;28;20049;-81
2022/10/29 02:48:49;;;;;;;15.43;12.43;;;;;;;21.64;61.58;102132.09;5058020;28;20056;-81
2022/10/29 02:51:17;;;;;;;17.27;12.27;;;;;;;21.64;61.59;102132.09;5058165;28;20049;-81
2022/10/29 02:53:44;;;;;;;17.17;12.23;;;;;;;21.64;61.51;102132.09;5057448;28;20049;-81
2022/10/29 02:56:12;;;;;;;15.93;12.15;;;;;;;21.62;61.51;102121.41;5057913;28;20052;-81
2022/10/29 02:58:39;;;;;;;15.75;11.90;;;;;;;21.62;61.64;102125.94;5058300;28;20144;-82
2022/10/29 03:01:06;;;;;;;18.92;13.88;;;;;;;21.62;61.57;102124.09;5057786;28;20056;-81
2022/10/29 03:03:34;;;;;;;14.30;12.57;;;;;;;21.63;61.46;102124.94;5057591;28;20064;-81
2022/10/29 03:06:01;;;;;;;14.88;12.45;;;;;;;21.63;61.55;102124.94;5057661;28;20068;-81
2022/10/29 03:08:28;;;;;;;17.17;12.02;;;;;;;21.62;61.39;102124.09;5057276;28;20385;-81
2022/10/29 03:10:56;;;;;;;14.40;11.68;;;;;;;21.60;61.56;102115.28;5057710;28;20045;-81
2022/10/29 03:13:25;;;;;;;12.75;11.32;;;;;;;21.62;61.51;102123.25;5057716;28;20053;-81
2022/10/29 03:15:53;;;;;;;15.52;12.40;;;;;;;21.60;61.43;102112.59;5057470;28;20048;-81
2022/10/29 03:18:20;;;;;;;15.77;12.15;;;;;;;21.61;61.56;102111.59;5057349;28;20041;-81
2022/10/29 03:20:47;;;;;;;14.05;11.90;;;;;;;21.61;61.72;102114.31;5072342;28;20053;-81
2022/10/29 03:23:14;;;;;;;13.13;11.60;;;;;;;21.61;61.42;102114.31;5054230;28;20056;-81
2022/10/29 03:25:42;;;;;;;13.32;11.93;;;;;;;21.59;61.37;102104.59;5057289;28;20045;-81
2022/10/29 03:28:09;;;;;;;16.55;12.00;;;;;;;21.61;61.32;102113.44;5056934;28;20056;-80
2022/10/29 03:30:36;;;;;;;12.25;11.02;;;;;;;21.61;61.39;102099.97;5056923;28;20474;-81
2022/10/29 03:33:04;;;;;;;13.40;12.00;;;;;;;21.60;61.33;102109.03;5057266;28;20507;-80
2022/10/29 03:35:31;;;;;;;13.50;11.80;;;;;;;21.60;61.25;102107.19;5057090;28;20469;-80
2022/10/29 03:37:58;;;;;;;14.27;11.82;;;;;;;21.58;61.11;102103.75;5056757;28;20045;-80
2022/10/29 03:40:26;;;;;;;14.50;10.77;;;;;;;21.59;61.25;102108.19;5057152;28;20381;-80
2022/10/29 03:42:53;;;;;;;13.40;10.43;;;;;;;21.60;61.47;102115.28;5057224;28;20049;-80
2022/10/29 03:45:21;;;;;;;13.23;11.00;;;;;;;21.58;61.17;102101.06;5056789;28;20492;-81
2022/10/29 03:47:48;;;;;;;13.70;10.88;;;;;;;21.59;61.22;102108.19;5056771;28;20040;-80
2022/10/29 03:50:15;;;;;;;13.05;11.18;;;;;;;21.58;61.31;102110.97;5056647;28;20049;-80
2022/10/29 03:52:43;;;;;;;12.93;10.77;;;;;;;21.59;61.11;102110.00;5054361;28;20049;-80
2022/10/29 03:55:10;;;;;;;15.63;11.30;;;;;;;21.60;61.08;102117.97;5056723;28;20052;-81
2022/10/29 03:57:37;;;;;;;12.18;10.70;;;;;;;21.58;61.16;102119.91;5056702;28;20044;-80
2022/10/29 04:00:05;;;;;;;14.40;11.43;;;;;;;21.58;61.19;102127.16;5056528;28;20048;-80
2022/10/29 04:02:41;;;;;;;13.60;11.00;;;;;;;21.56;61.08;102119.19;5056349;28;20049;-79
2022/10/29 04:05:09;;;;;;;12.40;11.13;;;;;;;21.58;60.91;102117.22;5071562;28;20049;-81
2022/10/29 04:07:36;;;;;;;16.33;11.43;;;;;;;21.57;61.01;102110.13;5056353;28;20060;-81
2022/10/29 04:10:04;;;;;;;13.05;11.18;;;;;;;21.58;60.99;102124.44;5056150;28;20052;-80
2022/10/29 04:12:31;;;;;;;13.63;10.48;;;;;;;21.58;61.20;102129.84;5056389;28;20497;-81
2022/10/29 04:14:58;;;;;;;14.20;10.48;;;;;;;21.57;61.29;102130.81;5056465;28;20048;-80
2022/10/29 04:17:25;;;;;;;11.65;10.20;;;;;;;21.57;61.48;102126.28;5056309;28;20059;-80
2022/10/29 04:19:53;;;;;;;11.57;10.35;;;;;;;21.57;61.29;102122.75;5056037;28;20041;-80
2022/10/29 04:22:20;;;;;;;14.82;10.93;;;;;;;21.56;61.38;102127.28;5054249;28;20060;-80
2022/10/29 04:25:08;;;;;;;10.43;9.43;;;;;;;21.57;61.57;102120.03;5054417;28;20053;-81
2022/10/29 04:27:56;;;;;;;12.95;11.30;;;;;;;21.57;61.23;102114.66;5056132;28;20060;-81
2022/10/29 04:30:43;;;;;;;10.77;9.68;;;;;;;21.57;61.50;102120.03;5056253;28;20040;-80
2022/10/29 04:33:10;;;;;;;11.95;10.63;;;;;;;21.58;61.57;102124.44;5055954;28;20049;-80
2022/10/29 04:35:38;;;;;;;12.60;10.55;;;;;;;21.55;61.32;102122.84;5055808;28;20393;-81
2022/10/29 04:38:07;;;;;;;13.02;10.68;;;;;;;21.57;61.21;102114.66;5055924;28;20056;-80
2022/10/29 04:40:34;;;;;;;12.63;10.57;;;;;;;21.55;61.05;102117.44;5055624;28;20420;-80
2022/10/29 04:43:02;;;;;;;12.68;11.20;;;;;;;21.56;61.08;102118.34;5055736;28;20048;-80
2022/10/29 04:45:29;;;;;;;12.23;10.77;;;;;;;21.55;61.00;102128.22;5055911;28;20056;-80
2022/10/29 04:48:01;;;;;;;12.85;10.63;;;;;;;21.54;61.12;102113.03;5055597;28;20051;-80
2022/10/29 04:50:30;;;;;;;13.00;10.73;;;;;;;21.55;61.08;102111.19;5055386;28;20041;-80
2022/10/29 04:52:59;;;;;;;14.77;11.05;;;;;;;21.53;60.98;102110.47;5055410;28;20040;-80
2022/10/29 04:55:27;;;;;;;12.15;10.35;;;;;;;21.54;60.96;102118.44;5055195;28;20056;-79
2022/10/29 04:57:55;;;;;;;11.88;10.38;;;;;;;21.55;60.91;102114.75;5055224;28;20393;-79
2022/10/29 05:00:23;;;;;;;12.38;10.32;;;;;;;21.53;60.96;102114.03;5055101;28;20049;-80
2022/10/29 05:02:51;;;;;;;13.23;10.88;;;;;;;21.54;60.92;102110.34;5055969;28;20049;-81
2022/10/29 05:05:20;;;;;;;12.10;10.48;;;;;;;21.54;61.05;102113.03;5055912;28;20040;-81
2022/10/29 05:07:47;;;;;;;11.95;10.32;;;;;;;21.53;60.89;102111.31;5055452;28;20511;-81
2022/10/29 05:10:15;;;;;;;10.80;9.60;;;;;;;21.52;60.97;102101.53;5069830;28;20044;-80
2022/10/29 05:12:42;;;;;;;10.95;9.85;;;;;;;21.53;60.86;102114.03;5055307;28;20049;-79
2022/10/29 05:15:09;;;;;;;10.50;9.48;;;;;;;21.53;60.86;102114.03;5055112;28;20477;-81
2022/10/29 05:17:37;;;;;;;12.05;9.30;;;;;;;21.51;60.79;102121.34;5053183;28;20056;-81
2022/10/29 05:20:05;;;;;;;10.63;9.38;;;;;;;21.52;60.76;102117.69;5070530;28;20397;-81
2022/10/29 05:22:32;;;;;;;11.57;9.10;;;;;;;21.51;60.81;102109.72;5054906;28;20045;-81
2022/10/29 05:25:00;;;;;;;11.13;10.02;;;;;;;21.50;60.69;102114.25;5070173;28;20052;-80
2022/10/29 05:27:27;;;;;;;11.73;9.07;;;;;;;21.52;60.79;102119.53;5054805;28;20059;-80
2022/10/29 05:29:54;;;;;;;10.18;9.18;;;;;;;21.52;60.70;102123.09;5054680;28;20052;-80
2022/10/29 05:32:22;;;;;;;10.10;9.10;;;;;;;21.51;60.59;102115.94;5054892;28;20049;-81
2022/10/29 05:34:49;;;;;;;10.65;9.55;;;;;;;21.51;60.61;102113.25;5070548;28;20045;-81
2022/10/29 05:37:16;;;;;;;11.38;9.15;;;;;;;21.51;60.66;102113.25;5053178;28;20056;-80
2022/10/29 05:39:44;;;;;;;10.45;9.35;;;;;;;21.51;60.60;102115.09;5054999;28;20044;-80
2022/10/29 05:42:11;;;;;;;10.80;9.27;;;;;;;21.48;60.64;102110.81;5055246;28;20060;-79
2022/10/29 05:44:38;;;;;;;9.23;8.30;;;;;;;21.49;60.57;102112.53;5055326;28;20049;-80
2022/10/29 05:47:06;;;;;;;11.80;9.32;;;;;;;21.51;60.49;102115.09;5054844;28;20051;-80
2022/10/29 05:49:33;;;;;;;10.45;9.40;;;;;;;21.49;60.69;102109.84;5055274;28;20041;-80
2022/10/29 05:52:00;;;;;;;11.82;9.25;;;;;;;21.49;60.50;102101.75;5070097;28;20064;-80
2022/10/29 05:54:28;;;;;;;11.05;9.05;;;;;;;21.50;60.57;102116.94;5054413;28;20056;-80
2022/10/29 05:56:57;;;;;;;10.75;8.68;;;;;;;21.47;60.32;102115.34;5054484;28;20477;-79
2022/10/29 05:59:25;;;;;;;9.75;8.75;;;;;;;21.47;60.49;102118.03;5055406;28;20041;-80
2022/10/29 06:01:59;;;;;;;9.80;8.75;;;;;;;21.48;60.43;102110.81;5054735;28;20052;-80
2022/10/29 06:04:27;;;;;;;10.10;8.50;;;;;;;21.47;60.48;102112.66;5054251;28;20045;-80
2022/10/29 06:06:54;;;;;;;10.00;9.00;;;;;;;21.48;60.50;102118.91;5054624;28;20051;-80
2022/10/29 06:09:21;;;;;;;9.63;8.68;;;;;;;21.48;60.54;102116.22;5054255;28;20049;-80
2022/10/29 06:11:49;;;;;;;9.80;8.80;;;;;;;21.47;60.52;102117.16;5053494;28;20045;-80
2022/10/29 06:14:16;;;;;;;10.15;9.15;;;;;;;21.46;60.42;102116.31;5054400;28;20049;-80
2022/10/29 06:16:43;;;;;;;10.45;8.23;;;;;;;21.48;60.42;102116.22;5054674;28;20033;-81
2022/10/29 06:19:11;;;;;;;11.23;9.57;;;;;;;21.48;60.64;102124.28;5054577;28;20056;-80
2022/10/29 06:21:38;;;;;;;9.63;8.55;;;;;;;21.46;60.98;102123.53;5070185;28;20504;-82
2022/10/29 06:24:05;;;;;;;12.05;8.55;;;;;;;21.47;60.23;102122.53;5054802;28;20040;-80
2022/10/29 06:26:33;;;;;;;11.73;9.23;;;;;;;21.47;60.05;102125.25;5070716;28;20066;-82
2022/10/29 06:29:00;;;;;;;15.85;10.68;;;;;;;21.45;58.99;102121.81;5054913;28;20083;-80
2022/10/29 06:31:28;;;;;;;12.10;9.38;;;;;;;21.46;59.62;102118.13;5053995;28;20053;-81
2022/10/29 06:33:55;;;;;;;13.95;9.50;;;;;;;21.45;59.54;102124.50;5054680;28;20048;-80
2022/10/29 06:36:22;;;;;;;11.95;10.38;;;;;;;21.45;58.76;102117.28;5054718;28;20045;-85
2022/10/29 06:38:50;;;;;;;11.43;8.80;;;;;;;21.46;59.68;102118.13;5054542;28;20048;-79
2022/10/29 06:41:17;;;;;;;9.90;8.07;;;;;;;21.46;60.36;102115.44;5054586;28;20052;-79
2022/10/29 06:43:44;;;;;;;10.52;9.45;;;;;;;21.46;60.31;102112.75;5054528;28;20374;-83
2022/10/29 06:46:12;;;;;;;9.65;8.52;;;;;;;21.47;60.30;102122.53;5054420;28;20045;-81
2022/10/29 06:48:39;;;;;;;12.07;9.85;;;;;;;21.46;59.43;102119.00;5054165;28;20045;-80
2022/10/29 06:51:06;;;;;;;14.82;10.70;;;;;;;21.45;57.42;102124.50;5054012;28;20048;-80
2022/10/29 06:53:33;;;;;;;15.43;11.05;;;;;;;21.44;56.48;102131.75;5053601;28;20049;-80
2022/10/29 06:56:01;;;;;;;15.05;10.43;;;;;;;21.43;56.81;102135.41;5054483;28;20056;-79
2022/10/29 06:58:28;;;;;;;12.77;9.70;;;;;;;21.44;57.21;102145.22;5056522;28;20057;-79
2022/10/29 07:01:01;;;;;;;13.85;8.88;;;;;;;21.44;57.92;102149.75;5057919;28;20052;-82
2022/10/29 07:03:28;;;;;;;18.38;8.60;;;;;;;21.46;58.14;102155.88;5057484;28;20044;-80
2022/10/29 07:05:58;;;;;;;12.85;9.75;;;;;;;21.43;56.26;102154.28;5057867;28;20048;-79
2022/10/29 07:08:25;;;;;;;19.80;10.10;;;;;;;21.39;55.72;102163.56;5057021;28;20051;-81
2022/10/29 07:10:53;;;;;;;17.42;10.23;;;;;;;21.36;55.82;102160.22;5057772;28;20041;-79
2022/10/29 07:13:21;;;;;;;13.88;9.98;;;;;;;21.34;55.76;102162.16;5057858;28;20049;-84
2022/10/29 07:15:48;;;;;;;17.02;10.95;;;;;;;21.32;56.00;102158.69;5057759;28;20358;-81
2022/10/29 07:18:16;;;;;;;15.07;10.52;;;;;;;21.27;55.05;102159.03;5056335;28;20049;-82
2022/10/29 07:20:44;;;;;;;16.70;10.23;;;;;;;21.25;55.26;102169.06;5073148;28;20072;-82
2022/10/29 07:23:12;;;;;;;14.38;9.70;;;;;;;21.22;55.46;102167.44;5057685;28;20386;-83
2022/10/29 07:25:40;;;;;;;18.35;9.98;;;;;;;21.21;55.44;102154.94;5057411;28;20065;-80
2022/10/29 07:28:19;;;;;;;12.55;9.60;;;;;;;21.22;55.81;102164.72;5056679;28;20045;-79
2022/10/29 07:30:50;;;;;;;14.07;10.13;;;;;;;21.22;56.20;102164.72;5056892;28;20535;-80
2022/10/29 07:33:17;;;;;;;14.20;10.00;;;;;;;21.22;56.17;102169.25;5072516;28;20516;-80
2022/10/29 07:35:45;;;;;;;15.18;9.73;;;;;;;21.24;56.34;102178.97;5056933;28;20049;-79
2022/10/29 07:38:12;;;;;;;14.63;9.13;;;;;;;21.25;56.28;102171.75;5057168;28;20041;-80
2022/10/29 07:40:46;;;;;;;13.40;10.13;;;;;;;21.24;56.49;102172.72;5056869;28;20056;-79
2022/10/29 07:43:15;;;;;;;12.82;8.73;;;;;;;21.26;56.86;102175.28;5056642;28;20045;-79
2022/10/29 07:45:48;;;;;;;10.93;8.15;;;;;;;21.26;57.01;102178.00;5056910;28;20056;-80
2022/10/29 07:48:17;;;;;;;11.20;8.27;;;;;;;21.27;57.16;102167.13;5056684;28;20473;-79
2022/10/29 07:50:45;;;;;;;15.43;7.80;;;;;;;21.28;57.17;102168.84;5056162;28;20041;-79
2022/10/29 07:53:13;;;;;;;11.43;8.32;;;;;;;21.29;57.27;102167.00;5056088;28;20041;-79
2022/10/29 07:55:40;;;;;;;13.27;8.38;;;;;;;21.29;57.34;102167.00;5056259;28;20064;-79
2022/10/29 07:58:11;;;;;;;12.68;8.02;;;;;;;21.30;57.38;102171.41;5055929;28;20409;-79
2022/10/29 08:00:40;;;;;;;10.32;7.53;;;;;;;21.31;57.54;102165.03;5055918;28;20076;-79
2022/10/29 08:03:10;;;;;;;10.43;7.95;;;;;;;21.33;57.61;102168.53;5055830;28;20045;-79
2022/10/29 08:05:38;;;;;;;8.10;7.10;;;;;;;21.32;57.75;102164.97;5056726;28;20055;-79
2022/10/29 08:08:08;;;;;;;10.77;7.75;;;;;;;21.33;57.78;102164.00;5071182;28;20064;-79
2022/10/29 08:10:36;;;;;;;12.18;8.20;;;;;;;;;;5056161;28;20048;-78
2022/10/29 08:13:05;;;;;;;9.90;8.27;;;;;;;21.36;57.95;102171.00;5055604;28;20497;-79
2022/10/29 08:15:33;;;;;;;15.55;9.27;;;;;;;21.37;57.92;102170.03;5070733;28;20067;-79
2022/10/29 08:18:02;;;;;;;10.52;7.82;;;;;;;21.38;57.99;102172.59;5056075;28;20056;-78
2022/10/29 08:20:30;;;;;;;10.93;8.85;;;;;;;21.38;57.90;102169.03;5071610;28;20041;-79
2022/10/29 08:22:59;;;;;;;10.90;7.85;;;;;;;21.38;57.90;102169.91;5055995;28;20041;-79
2022/10/29 08:25:27;;;;;;;11.88;8.25;;;;;;;21.38;57.91;102171.72;5055619;28;20056;-79
2022/10/29 08:28:03;;;;;;;13.32;9.10;;;;;;;21.40;57.90;102185.97;5055187;28;20389;-79
2022/10/29 08:30:31;;;;;;;14.35;7.90;;;;;;;21.41;57.83;102184.97;5055479;28;20044;-79
2022/10/29 08:32:59;;;;;;;9.95;7.13;;;;;;;21.41;57.95;102179.59;5055027;28;20052;-79
2022/10/29 08:35:28;;;;;;;12.43;7.57;;;;;;;21.41;57.85;102179.59;5056435;28;20044;-79
2022/10/29 08:37:56;;;;;;;8.20;6.68;;;;;;;21.40;57.90;102177.88;5056912;28;20052;-79
2022/10/29 08:40:28;;;;;;;11.55;7.72;;;;;;;21.43;57.98;102169.56;5056574;28;20389;-79
2022/10/29 08:43:26;;;;;;;11.57;7.55;;;;;;;21.42;57.93;102170.53;5056607;28;20056;-79
2022/10/29 08:45:54;;;;;;;19.75;7.60;;;;;;;21.43;58.08;102161.47;5055927;28;20052;-79
2022/10/29 08:48:34;;;;;;;11.45;6.68;;;;;;;21.43;58.02;102164.16;5056467;28;20046;-78
2022/10/29 08:51:16;;;;;;;10.52;7.25;;;;;;;21.44;58.06;102161.38;5056415;28;20049;-79
2022/10/29 08:53:49;;;;;;;10.53;7.23;;;;;;;21.44;58.04;102164.06;5056596;28;20053;-79
2022/10/29 08:56:42;;;;;;;15.23;7.20;;;;;;;21.43;58.09;102156.06;5055591;28;20049;-79
2022/10/29 08:59:19;;;;;;;10.63;7.53;;;;;;;21.45;58.14;102163.09;5056252;28;20056;-79
2022/10/29 09:01:47;;;;;;;12.52;7.55;;;;;;;21.44;58.14;102163.22;5056266;28;20049;-79
2022/10/29 09:04:23;;;;;;;12.48;8.00;;;;;;;21.45;58.15;102154.16;5054418;28;20420;-79
2022/10/29 09:06:57;;;;;;;11.10;7.65;;;;;;;21.44;58.23;102161.38;5055645;28;20072;-79
2022/10/29 09:09:33;;;;;;;11.27;8.10;;;;;;;21.45;58.33;102155.00;5055873;28;20056;-79
2022/10/29 09:12:06;;;;;;;10.70;7.50;;;;;;;21.46;58.13;102158.56;5056304;28;20056;-79
2022/10/29 09:14:49;;;;;;;12.82;8.52;;;;;;;21.46;58.36;102161.25;5070676;28;20045;-79
2022/10/29 09:17:20;;;;;;;17.35;9.32;;;;;;;21.45;58.41;102152.31;5056103;28;20045;-79
2022/10/29 09:20:06;;;;;;;14.00;8.80;;;;;;;21.47;58.42;102154.88;5056352;28;20037;-79
2022/10/29 09:22:58;;;;;;;14.57;8.48;;;;;;;21.47;58.41;102152.19;5055655;28;20052;-79
2022/10/29 09:25:54;;;;;;;17.33;8.57;;;;;;;21.47;58.49;102146.78;5055434;28;20053;-79
2022/10/29 09:28:37;;;;;;;15.23;8.65;;;;;;;21.47;58.54;102149.50;5053385;28;20049;-79
2022/10/29 09:31:21;;;;;;;12.90;8.88;;;;;;;21.47;58.49;102149.50;5055376;28;20037;-79
2022/10/29 09:33:52;;;;;;;15.63;9.32;;;;;;;21.46;58.55;102150.47;5056313;28;20041;-79
2022/10/29 09:36:24;;;;;;;16.35;8.70;;;;;;;21.47;58.61;102152.19;5055855;28;20052;-79
2022/10/29 09:39:03;;;;;;;11.23;7.70;;;;;;;21.48;58.70;102148.53;5055055;28;20045;-79
2022/10/29 09:41:33;;;;;;;12.68;8.35;;;;;;;21.47;58.59;102145.00;5055773;28;20476;-79
2022/10/29 09:44:05;;;;;;;11.25;8.73;;;;;;;21.48;58.96;102145.84;5056100;28;20380;-79
2022/10/29 09:46:46;;;;;;;13.70;8.40;;;;;;;21.46;58.76;102134.31;5053565;28;20060;-79
2022/10/29 09:50:02;;;;;;;14.60;8.65;;;;;;;21.50;58.78;102140.34;5055626;28;20369;-79
2022/10/29 09:52:38;;;;;;;13.80;8.75;;;;;;;21.48;58.83;102137.75;5048007;28;20072;-79
2022/10/29 09:55:13;;;;;;;10.05;7.38;;;;;;;21.49;58.84;102142.16;5055478;28;20044;-79
2022/10/29 09:57:40;;;;;;;14.70;8.70;;;;;;;21.47;58.80;102139.59;5055423;28;20053;-79
2022/10/29 10:00:21;;;;;;;10.60;8.18;;;;;;;21.49;58.81;102136.78;5055177;28;20049;-79
2022/10/29 10:02:55;;;;;;;12.80;8.30;;;;;;;21.49;58.87;102134.09;5055861;28;20045;-79
2022/10/29 10:05:29;;;;;;;13.00;8.65;;;;;;;21.47;58.79;102130.63;5055318;28;20049;-79
2022/10/29 10:08:10;;;;;;;12.10;7.53;;;;;;;21.48;58.83;102133.22;5055801;28;20053;-79
2022/10/29 10:10:53;;;;;;;14.48;8.35;;;;;;;21.49;58.86;102123.31;5053627;28;20053;-78
2022/10/29 10:13:27;;;;;;;10.57;8.55;;;;;;;21.51;58.80;102126.72;5055816;28;20469;-79
2022/10/29 10:15:58;;;;;;;11.10;7.68;;;;;;;21.48;59.01;102116.22;5055418;28;20056;-79
2022/10/29 10:18:38;;;;;;;12.32;7.72;;;;;;;21.48;58.88;102117.06;5055316;28;20060;-79
2022/10/29 10:21:12;;;;;;;12.52;8.15;;;;;;;21.50;58.97;102116.09;5070403;28;20389;-78
2022/10/29 10:23:53;;;;;;;12.35;8.85;;;;;;;21.50;58.96;102114.25;5054760;28;20060;-79
2022/10/29 10:26:41;;;;;;;15.40;8.55;;;;;;;21.49;59.03;102115.22;5055380;28;20056;-79
2022/10/29 10:29:16;;;;;;;14.10;8.63;;;;;;;21.49;59.07;102109.84;5055446;28;20052;-79
2022/10/29 10:31:49;;;;;;;12.43;8.55;;;;;;;21.50;59.09;102110.69;5055719;28;20472;-79
2022/10/29 10:34:22;;;;;;;16.27;8.82;;;;;;;21.50;59.08;102106.16;5059158;28;20056;-79
2022/10/29 10:37:17;;;;;;;14.48;8.35;;;;;;;21.47;59.16;102096.50;5059109;28;20059;-79
2022/10/29 10:39:51;;;;;;;11.68;8.35;;;;;;;21.48;59.09;102100.91;5055877;28;20064;-79
2022/10/29 10:42:24;;;;;;;13.45;7.97;;;;;;;21.49;59.18;102101.75;5058816;28;20045;-79
2022/10/29 10:45:00;;;;;;;12.57;8.85;;;;;;;21.50;59.24;102092.69;5058701;28;20054;-79
2022/10/29 10:47:32;;;;;;;13.80;8.93;;;;;;;21.50;59.21;102086.44;5058465;28;20054;-79
2022/10/29 10:50:27;;;;;;;13.20;9.20;;;;;;;21.50;59.24;102087.28;5059312;28;20053;-79
2022/10/29 10:52:57;;;;;;;12.55;9.63;;;;;;;21.50;59.22;102081.91;5058472;28;20052;-79
2022/10/29 10:55:31;;;;;;;10.52;8.70;;;;;;;21.51;59.21;102080.06;5059045;28;20060;-79
2022/10/29 10:58:06;;;;;;;15.93;9.35;;;;;;;21.51;59.23;102082.75;5059048;28;20056;-79
2022/10/29 11:00:42;;;;;;;12.63;9.07;;;;;;;21.49;59.22;102074.81;5058772;28;20048;-77
2022/10/29 11:03:19;;;;;;;11.27;8.15;;;;;;;21.51;59.27;102078.22;5062718;28;20108;-79
2022/10/29 11:05:56;;;;;;;12.48;9.48;;;;;;;21.50;59.28;102063.06;5056069;28;20045;-79
2022/10/29 11:08:33;;;;;;;12.38;8.75;;;;;;;21.50;59.22;102060.34;5057948;28;20119;-79
2022/10/29 11:11:10;;;;;;;15.35;9.25;;;;;;;21.51;59.23;102058.50;5057711;28;20045;-79
2022/10/29 11:13:40;;;;;;;14.05;8.63;;;;;;;21.51;59.26;102064.75;5058979;28;20052;-79
2022/10/29 11:16:30;;;;;;;11.38;8.60;;;;;;;21.51;59.29;102061.22;5057897;28;20413;-79
2022/10/29 11:19:06;;;;;;;12.60;8.43;;;;;;;21.51;59.28;102055.81;5058265;28;20060;-79
2022/10/29 11:21:52;;;;;;;10.80;8.35;;;;;;;21.50;59.28;102051.41;5058201;28;20053;-79
2022/10/29 11:24:38;;;;;;;11.65;8.30;;;;;;;21.51;59.23;102040.50;5058605;28;20049;-79
2022/10/29 11:27:11;;;;;;;12.07;9.27;;;;;;;21.50;59.25;102037.94;5057883;28;20049;-79
2022/10/29 11:30:00;;;;;;;12.30;8.60;;;;;;;21.50;59.18;102038.81;5058316;28;20049;-79
2022/10/29 11:32:48;;;;;;;13.45;8.80;;;;;;;21.50;59.28;102029.88;5057675;28;20052;-79
2022/10/29 11:35:31;;;;;;;12.82;8.77;;;;;;;21.51;59.17;102028.88;5073010;28;20044;-79
2022/10/29 11:38:17;;;;;;;8.85;7.95;;;;;;;21.53;59.23;102026.94;5072929;28;20049;-78